createdAt,value
2022-11-24T00:02:15.031Z,82.42
2022-11-24T00:04:45.845Z,82.23
2022-11-24T00:07:16.602Z,82.35
2022-11-24T00:09:47.086Z,82.60
2022-11-24T00:12:20.199Z,82.86
2022-11-24T00:14:50.661Z,82.83
2022-11-24T00:17:21.118Z,82.66
2022-11-24T00:19:51.526Z,82.38
2022-11-24T00:22:21.954Z,82.46
2022-11-24T00:24:52.500Z,82.12
2022-11-24T00:27:25.585Z,82.16
2022-11-24T00:29:56.098Z,82.36
2022-11-24T00:32:26.529Z,82.28
2022-11-24T00:34:57.056Z,81.91
2022-11-24T00:37:27.653Z,82.22
2022-11-24T00:39:58.150Z,82.03
2022-11-24T00:42:31.272Z,82.28
2022-11-24T00:45:12.948Z,82.10
2022-11-24T00:47:44.163Z,82.32
2022-11-24T00:50:14.677Z,82.29
2022-11-24T00:52:45.098Z,82.31
2022-11-24T00:55:15.625Z,82.69
2022-11-24T00:57:48.747Z,82.49
2022-11-24T01:00:20.884Z,82.15
2022-11-24T01:02:51.332Z,82.36
2022-11-24T01:05:21.884Z,82.74
2022-11-24T01:07:52.412Z,82.97
2022-11-24T01:10:23.000Z,82.99
2022-11-24T01:12:56.047Z,83.05
2022-11-24T01:15:26.719Z,83.54
2022-11-24T01:17:57.185Z,83.29
2022-11-24T01:20:27.774Z,83.28
2022-11-24T01:22:58.215Z,83.25
2022-11-24T01:25:28.783Z,83.36
2022-11-24T01:28:01.888Z,83.33
2022-11-24T01:30:32.487Z,82.99
2022-11-24T01:33:03.023Z,82.92
2022-11-24T01:35:33.635Z,82.93
2022-11-24T01:38:04.264Z,82.97
2022-11-24T01:40:34.810Z,83.06
2022-11-24T01:43:19.265Z,83.13
2022-11-24T01:45:51.202Z,83.24
2022-11-24T01:48:27.730Z,83.31
2022-11-24T01:51:06.843Z,83.49
2022-11-24T01:53:37.492Z,83.42
2022-11-24T01:56:09.866Z,83.33
2022-11-24T01:58:46.115Z,83.31
2022-11-24T02:01:16.884Z,83.11
2022-11-24T02:03:50.129Z,83.20
2022-11-24T02:06:24.401Z,83.22
2022-11-24T02:09:01.197Z,83.14
2022-11-24T02:11:36.794Z,83.03
2022-11-24T02:14:11.102Z,83.45
2022-11-24T02:16:44.610Z,83.48
2022-11-24T02:19:21.518Z,83.47
2022-11-24T02:21:51.980Z,83.63
2022-11-24T02:24:28.651Z,83.39
2022-11-24T02:27:01.971Z,83.21
2022-11-24T02:29:32.638Z,83.56
2022-11-24T02:32:08.374Z,83.39
2022-11-24T02:34:38.998Z,83.62
2022-11-24T02:37:09.635Z,83.43
2022-11-24T02:39:40.198Z,83.76
2022-11-24T02:42:16.838Z,83.46
2022-11-24T02:44:52.226Z,83.50
2022-11-24T02:47:22.423Z,83.61
2022-11-24T02:49:53.140Z,83.66
2022-11-24T02:52:24.007Z,83.33
2022-11-24T02:54:54.423Z,83.39
2022-11-24T02:57:28.210Z,83.36
2022-11-24T02:59:58.874Z,83.06
2022-11-24T03:02:29.581Z,82.95
2022-11-24T03:05:00.040Z,83.11
2022-11-24T03:07:30.638Z,83.18
2022-11-24T03:10:01.126Z,83.09
2022-11-24T03:12:34.472Z,83.38
2022-11-24T03:15:05.464Z,83.41
2022-11-24T03:17:36.053Z,83.17
2022-11-24T03:20:06.915Z,82.91
2022-11-24T03:22:37.452Z,82.42
2022-11-24T03:25:08.804Z,82.25
2022-11-24T03:27:41.969Z,82.10
2022-11-24T03:30:13.250Z,81.91
2022-11-24T03:32:43.771Z,81.89
2022-11-24T03:35:14.426Z,82.35
2022-11-24T03:37:44.979Z,82.51
2022-11-24T03:40:16.245Z,82.73
2022-11-24T03:42:49.379Z,82.88
2022-11-24T03:45:45.031Z,82.97
2022-11-24T03:48:10.821Z,83.14
2022-11-24T03:50:41.420Z,83.18
2022-11-24T03:53:12.080Z,82.99
2022-11-24T03:55:42.589Z,82.25
2022-11-24T03:58:15.611Z,82.72
2022-11-24T04:00:46.183Z,82.53
2022-11-24T04:03:16.632Z,83.09
2022-11-24T04:05:47.229Z,83.06
2022-11-24T04:08:18.489Z,83.29
2022-11-24T04:10:53.019Z,82.88
2022-11-24T04:13:25.857Z,82.86
2022-11-24T04:15:56.771Z,82.66
2022-11-24T04:18:27.305Z,82.65
2022-11-24T04:20:57.870Z,82.35
2022-11-24T04:23:28.842Z,82.55
2022-11-24T04:25:59.452Z,82.32
2022-11-24T04:28:32.553Z,82.54
2022-11-24T04:31:05.504Z,82.62
2022-11-24T04:33:36.367Z,82.13
2022-11-24T04:36:07.507Z,82.00
2022-11-24T04:39:19.652Z,82.22
2022-11-24T04:41:28.455Z,82.40
2022-11-24T04:44:01.501Z,82.32
2022-11-24T04:46:32.410Z,82.46
2022-11-24T04:49:02.985Z,82.46
2022-11-24T04:51:33.605Z,82.46
2022-11-24T04:54:04.000Z,81.61
2022-11-24T04:56:34.689Z,81.58
2022-11-24T04:59:08.674Z,81.67
2022-11-24T05:01:39.409Z,82.12
2022-11-24T05:04:12.546Z,82.33
2022-11-24T05:06:43.652Z,82.25
2022-11-24T05:09:17.965Z,82.21
2022-11-24T05:11:48.651Z,82.29
2022-11-24T05:14:21.823Z,82.25
2022-11-24T05:16:52.353Z,82.24
2022-11-24T05:19:22.872Z,82.48
2022-11-24T05:21:54.637Z,82.72
2022-11-24T05:24:25.351Z,82.87
2022-11-24T05:26:55.998Z,82.72
2022-11-24T05:29:29.073Z,83.02
2022-11-24T05:32:01.694Z,83.20
2022-11-24T05:34:33.758Z,83.09
2022-11-24T05:37:05.207Z,82.59
2022-11-24T05:39:36.375Z,82.49
2022-11-24T05:42:21.075Z,82.53
2022-11-24T05:44:54.525Z,82.77
2022-11-24T05:47:25.852Z,82.92
2022-11-24T05:49:56.682Z,82.93
2022-11-24T05:52:27.241Z,82.94
2022-11-24T05:54:57.703Z,83.29
2022-11-24T05:57:28.367Z,83.03
2022-11-24T06:00:01.444Z,83.37
2022-11-24T06:02:32.469Z,83.46
2022-11-24T06:05:02.980Z,83.52
2022-11-24T06:07:33.584Z,83.34
2022-11-24T06:10:04.185Z,83.44
2022-11-24T06:12:36.378Z,83.73
2022-11-24T06:15:11.752Z,83.76
2022-11-24T06:17:42.829Z,83.69
2022-11-24T06:20:14.583Z,83.70
2022-11-24T06:22:45.074Z,83.52
2022-11-24T06:25:16.415Z,83.46
2022-11-24T06:27:47.000Z,82.92
2022-11-24T06:30:20.698Z,82.77
2022-11-24T06:32:51.182Z,82.66
2022-11-24T06:35:21.598Z,82.42
2022-11-24T06:37:52.136Z,82.83
2022-11-24T06:40:22.682Z,82.85
2022-11-24T06:42:54.464Z,82.88
2022-11-24T06:45:27.662Z,83.02
2022-11-24T06:47:58.664Z,82.97
2022-11-24T06:50:33.442Z,83.32
2022-11-24T06:53:04.355Z,83.85
2022-11-24T06:55:34.794Z,83.95
2022-11-24T06:58:05.390Z,84.04
2022-11-24T07:00:39.742Z,84.09
2022-11-24T07:03:10.311Z,83.80
2022-11-24T07:05:40.890Z,83.47
2022-11-24T07:08:16.284Z,83.29
2022-11-24T07:10:48.611Z,83.02
2022-11-24T07:13:19.220Z,83.22
2022-11-24T07:15:52.268Z,82.64
2022-11-24T07:18:22.783Z,82.73
2022-11-24T07:20:55.229Z,82.11
2022-11-24T07:23:25.781Z,81.12
2022-11-24T07:25:56.930Z,81.06
2022-11-24T07:28:27.583Z,80.23
2022-11-24T07:31:00.800Z,79.56
2022-11-24T07:33:31.283Z,78.74
2022-11-24T07:36:03.169Z,78.89
2022-11-24T07:38:34.589Z,79.02
2022-11-24T07:41:05.473Z,79.30
2022-11-24T07:43:37.545Z,79.58
2022-11-24T07:46:14.410Z,79.79
2022-11-24T07:48:45.216Z,79.70
2022-11-24T07:51:16.080Z,80.01
2022-11-24T07:53:47.082Z,80.36
2022-11-24T07:56:17.590Z,80.24
2022-11-24T07:58:52.652Z,80.64
2022-11-24T08:01:26.180Z,80.90
2022-11-24T08:03:57.014Z,81.21
2022-11-24T08:06:35.439Z,81.32
2022-11-24T08:09:09.080Z,81.60
2022-11-24T08:11:39.651Z,81.84
2022-11-24T08:14:10.278Z,82.09
2022-11-24T08:16:43.574Z,82.07
2022-11-24T08:19:14.660Z,82.49
2022-11-24T08:21:45.115Z,82.51
2022-11-24T08:24:16.568Z,82.58
2022-11-24T08:26:47.046Z,82.42
2022-11-24T08:29:17.607Z,82.26
2022-11-24T08:31:50.970Z,82.76
2022-11-24T08:34:21.445Z,82.62
2022-11-24T08:36:51.934Z,82.41
2022-11-24T08:39:22.507Z,82.72
2022-11-24T08:41:54.950Z,82.54
2022-11-24T08:44:25.975Z,82.80
2022-11-24T08:46:59.824Z,82.66
2022-11-24T08:49:30.648Z,82.40
2022-11-24T08:52:01.409Z,82.11
2022-11-24T08:54:32.412Z,82.29
2022-11-24T08:57:03.041Z,82.24
2022-11-24T08:59:33.675Z,82.25
2022-11-24T09:02:06.818Z,81.89
2022-11-24T09:04:38.716Z,82.12
2022-11-24T09:07:09.515Z,81.89
2022-11-24T09:09:40.203Z,81.50
2022-11-24T09:12:14.648Z,81.87
2022-11-24T09:14:45.500Z,82.04
2022-11-24T09:17:18.682Z,81.71
2022-11-24T09:19:50.009Z,81.70
2022-11-24T09:22:20.732Z,81.75
2022-11-24T09:24:51.363Z,81.68
2022-11-24T09:27:21.994Z,81.77
2022-11-24T09:29:52.553Z,81.53
2022-11-24T09:32:26.094Z,81.66
2022-11-24T09:34:56.553Z,81.85
2022-11-24T09:37:32.471Z,81.50
2022-11-24T09:40:03.282Z,81.56
2022-11-24T09:42:40.801Z,81.30
2022-11-24T09:45:35.394Z,81.42
2022-11-24T09:48:18.040Z,81.42
2022-11-24T09:50:51.516Z,81.46
2022-11-24T09:53:31.925Z,81.58
2022-11-24T09:56:06.631Z,81.52
2022-11-24T09:58:43.346Z,81.51
2022-11-24T10:01:19.734Z,81.30
2022-11-24T10:03:54.254Z,81.25
2022-11-24T10:06:30.822Z,81.58
2022-11-24T10:09:21.376Z,81.53
2022-11-24T10:12:01.684Z,81.65
2022-11-24T10:15:05.094Z,81.52
2022-11-24T10:17:51.822Z,81.78
2022-11-24T10:20:31.913Z,81.64
2022-11-24T10:23:20.409Z,81.68
2022-11-24T10:25:57.548Z,81.79
2022-11-24T10:28:35.293Z,81.95
2022-11-24T10:31:23.191Z,81.85
2022-11-24T10:33:53.972Z,82.12
2022-11-24T10:36:37.038Z,81.96
2022-11-24T10:39:16.532Z,81.74
2022-11-24T10:41:54.466Z,82.10
2022-11-24T10:44:28.016Z,82.13
2022-11-24T10:46:58.723Z,81.96
2022-11-24T10:49:33.532Z,81.99
2022-11-24T10:52:14.769Z,82.52
2022-11-24T10:54:58.904Z,82.45
2022-11-24T10:57:34.560Z,82.64
2022-11-24T11:00:08.539Z,82.68
2022-11-24T11:02:41.251Z,82.93
2022-11-24T11:05:38.252Z,83.17
2022-11-24T11:08:26.738Z,83.06
2022-11-24T11:11:16.181Z,83.50
2022-11-24T11:14:03.570Z,83.14
2022-11-24T11:16:39.022Z,83.47
2022-11-24T11:19:55.418Z,83.31
2022-11-24T11:22:27.767Z,83.68
2022-11-24T11:25:17.784Z,84.06
2022-11-24T11:27:48.476Z,84.02
2022-11-24T11:36:18.898Z,83.82
2022-11-24T11:38:50.892Z,84.16
2022-11-24T11:41:29.395Z,84.16
2022-11-24T11:44:12.072Z,84.10
2022-11-24T11:46:42.728Z,84.35
2022-11-24T11:49:15.414Z,84.33
2022-11-24T11:51:59.421Z,84.43
2022-11-24T11:54:41.280Z,84.50
2022-11-24T11:57:25.630Z,84.55
2022-11-24T12:00:10.956Z,84.96
2022-11-24T12:03:08.570Z,84.75
2022-11-24T12:05:50.781Z,84.94
2022-11-24T12:09:03.235Z,85.10
2022-11-24T12:11:37.208Z,85.03
2022-11-24T12:14:25.444Z,85.32
2022-11-24T12:17:05.190Z,84.94
2022-11-24T12:19:48.620Z,85.02
2022-11-24T12:22:28.069Z,85.35
2022-11-24T12:25:03.617Z,85.49
2022-11-24T12:27:47.431Z,85.20
2022-11-24T12:30:22.899Z,85.14
2022-11-24T12:33:16.710Z,85.08
2022-11-24T12:35:49.598Z,85.18
2022-11-24T12:38:38.965Z,85.16
2022-11-24T12:41:43.451Z,85.25
2022-11-24T12:44:25.100Z,85.29
2022-11-24T12:47:08.913Z,85.24
2022-11-24T12:49:51.693Z,84.85
2022-11-24T12:52:29.041Z,84.86
2022-11-24T12:55:01.332Z,84.52
2022-11-24T12:57:39.084Z,84.54
2022-11-24T13:00:19.729Z,84.87
2022-11-24T13:03:08.556Z,84.62
2022-11-24T13:05:49.147Z,84.32
2022-11-24T13:08:19.768Z,84.27
2022-11-24T13:10:58.226Z,84.41
2022-11-24T13:13:51.140Z,84.37
2022-11-24T13:16:53.228Z,84.08
2022-11-24T13:19:20.058Z,83.59
2022-11-24T13:22:06.499Z,83.15
2022-11-24T13:24:39.348Z,83.22
2022-11-24T13:27:30.640Z,82.84
2022-11-24T13:30:01.384Z,83.14
2022-11-24T13:32:50.207Z,83.39
2022-11-24T13:35:23.432Z,83.55
2022-11-24T13:37:57.811Z,83.30
2022-11-24T13:41:12.949Z,83.39
2022-11-24T13:43:37.714Z,83.50
2022-11-24T13:46:08.301Z,83.66
2022-11-24T13:49:04.104Z,83.50
2022-11-24T13:51:37.325Z,84.05
2022-11-24T13:54:14.022Z,83.99
2022-11-24T13:56:44.514Z,83.98
2022-11-24T13:59:30.490Z,84.22
2022-11-24T14:02:01.178Z,84.34
2022-11-24T14:04:43.435Z,83.84
2022-11-24T14:07:18.273Z,84.01
2022-11-24T14:09:51.075Z,84.13
2022-11-24T14:12:26.921Z,84.08
2022-11-24T14:15:15.779Z,84.21
2022-11-24T14:17:46.249Z,84.17
2022-11-24T14:20:25.234Z,84.12
2022-11-24T14:22:58.378Z,84.12
2022-11-24T14:25:32.939Z,83.98
2022-11-24T14:28:03.527Z,84.15
2022-11-24T14:30:34.074Z,84.21
2022-11-24T14:33:06.758Z,84.02
2022-11-24T14:35:38.750Z,84.04
2022-11-24T14:38:15.096Z,83.95
2022-11-24T14:40:48.420Z,83.46
2022-11-24T14:43:25.206Z,82.87
2022-11-24T14:45:58.921Z,83.28
2022-11-24T14:48:32.283Z,83.38
2022-11-24T14:51:15.841Z,83.64
2022-11-24T14:53:52.540Z,83.33
2022-11-24T14:56:28.467Z,83.51
2022-11-24T14:59:00.480Z,83.66
2022-11-24T15:01:36.472Z,83.50
2022-11-24T15:04:38.894Z,83.59
2022-11-24T15:07:18.171Z,83.15
2022-11-24T15:10:54.208Z,83.81
2022-11-24T15:17:34.125Z,83.80
2022-11-24T15:20:11.229Z,83.79
2022-11-24T15:22:44.564Z,83.91
2022-11-24T15:25:41.571Z,83.70
2022-11-24T15:28:12.176Z,83.52
2022-11-24T15:30:42.757Z,80.38
2022-11-24T15:33:18.543Z,78.79
2022-11-24T15:35:49.342Z,79.60
2022-11-24T15:38:20.382Z,80.23
2022-11-24T15:40:55.342Z,82.45
2022-11-24T15:43:32.201Z,89.38
2022-11-24T15:46:03.989Z,91.99
2022-11-24T15:48:34.739Z,91.45
2022-11-24T15:51:08.447Z,91.05
2022-11-24T15:53:42.675Z,90.88
2022-11-24T15:56:26.595Z,89.98
2022-11-24T15:58:57.223Z,88.26
2022-11-24T16:01:33.250Z,94.94
2022-11-24T16:04:04.080Z,94.40
2022-11-24T16:06:37.949Z,91.53
2022-11-24T16:09:08.658Z,91.26
2022-11-24T16:11:41.906Z,91.05
2022-11-24T16:14:12.479Z,90.97
2022-11-24T16:16:43.236Z,88.74
2022-11-24T16:19:16.059Z,87.16
2022-11-24T16:21:46.769Z,93.38
2022-11-24T16:24:17.350Z,93.34
2022-11-24T16:26:50.606Z,91.63
2022-11-24T16:29:23.845Z,90.93
2022-11-24T16:31:55.220Z,90.65
2022-11-24T16:34:25.983Z,89.54
2022-11-24T16:36:56.620Z,95.16
2022-11-24T16:39:27.321Z,93.36
2022-11-24T16:45:22.356Z,90.32
2022-11-24T16:47:53.207Z,90.19
2022-11-24T16:50:23.945Z,90.54
2022-11-24T16:52:54.579Z,95.51
2022-11-24T16:55:25.466Z,93.82
2022-11-24T16:57:56.366Z,90.77
2022-11-24T17:00:29.928Z,89.48
2022-11-24T17:03:00.750Z,89.43
2022-11-24T17:05:31.450Z,90.74
2022-11-24T17:08:02.554Z,96.31
2022-11-24T17:10:34.169Z,90.64
2022-11-24T17:13:05.869Z,84.02
2022-11-24T17:15:46.192Z,80.57
2022-11-24T17:18:26.835Z,82.52
2022-11-24T17:21:05.972Z,83.90
2022-11-24T17:23:40.063Z,83.64
2022-11-24T17:26:13.692Z,85.75
2022-11-24T17:28:44.997Z,87.99
2022-11-24T17:31:23.259Z,88.68
2022-11-24T17:33:55.527Z,88.31
2022-11-24T17:36:26.498Z,88.46
2022-11-24T17:38:58.360Z,89.24
2022-11-24T17:41:28.950Z,90.98
2022-11-24T17:43:59.737Z,91.63
2022-11-24T17:46:34.151Z,91.94
2022-11-24T17:49:04.782Z,91.43
2022-11-24T17:51:35.622Z,90.51
2022-11-24T17:54:31.261Z,97.84
2022-11-24T17:56:56.842Z,96.79
2022-11-24T17:59:28.578Z,96.05
2022-11-24T18:02:02.121Z,95.53
2022-11-24T18:04:34.118Z,94.97
2022-11-24T18:07:05.603Z,94.17
2022-11-24T18:09:37.295Z,93.41
2022-11-24T18:12:08.817Z,92.64
2022-11-24T18:14:39.818Z,92.75
2022-11-24T18:17:13.524Z,84.46
2022-11-24T18:19:44.834Z,81.73
2022-11-24T18:23:26.709Z,82.68
2022-11-24T18:25:58.310Z,82.41
2022-11-24T18:28:29.745Z,83.24
2022-11-24T18:31:04.921Z,84.24
2022-11-24T18:33:36.020Z,84.77
2022-11-24T18:36:07.680Z,84.87
2022-11-24T18:40:28.905Z,89.26
2022-11-24T18:42:59.363Z,89.94
2022-11-24T18:45:30.283Z,90.79
2022-11-24T18:48:00.978Z,91.60
2022-11-24T18:50:31.537Z,92.17
2022-11-24T18:53:02.611Z,92.32
2022-11-24T18:55:35.763Z,92.67
2022-11-24T18:58:06.327Z,92.56
2022-11-24T19:00:37.179Z,92.13
2022-11-24T19:03:07.781Z,91.65
2022-11-24T19:05:38.602Z,91.66
2022-11-24T19:08:09.332Z,91.52
2022-11-24T19:10:45.470Z,90.93
2022-11-24T19:13:16.704Z,90.54
2022-11-24T19:15:48.794Z,90.48
2022-11-24T19:18:19.557Z,90.20
2022-11-24T19:20:50.253Z,89.60
2022-11-24T19:23:21.455Z,89.22
2022-11-24T19:25:54.809Z,89.00
2022-11-24T19:28:25.449Z,88.38
2022-11-24T19:30:56.410Z,88.58
2022-11-24T19:33:26.971Z,91.27
2022-11-24T19:36:03.769Z,91.01
2022-11-24T19:38:35.074Z,87.92
2022-11-24T19:41:10.872Z,90.07
2022-11-24T19:43:42.486Z,87.41
2022-11-24T19:46:15.648Z,86.05
2022-11-24T19:48:48.913Z,88.98
2022-11-24T19:51:21.280Z,90.73
2022-11-24T19:53:51.763Z,90.04
2022-11-24T19:56:27.785Z,90.74
2022-11-24T19:58:59.161Z,88.28
2022-11-24T20:01:31.188Z,87.35
2022-11-24T20:04:04.161Z,91.67
2022-11-24T20:06:36.923Z,89.97
2022-11-24T20:09:10.044Z,88.27
2022-11-24T20:11:43.744Z,86.23
2022-11-24T20:14:15.760Z,85.24
2022-11-24T20:16:48.064Z,91.58
2022-11-24T20:19:20.403Z,91.24
2022-11-24T20:21:52.061Z,88.17
2022-11-24T20:24:24.056Z,86.30
2022-11-24T20:27:00.408Z,90.58
2022-11-24T20:29:33.971Z,90.33
2022-11-24T20:32:06.312Z,87.25
2022-11-24T20:34:37.769Z,87.33
2022-11-24T20:37:13.748Z,90.51
2022-11-24T20:39:47.381Z,87.52
2022-11-24T20:42:20.593Z,84.97
2022-11-24T20:44:51.329Z,84.12
2022-11-24T20:47:22.193Z,84.12
2022-11-24T20:49:52.817Z,89.29
2022-11-24T20:52:23.387Z,88.94
2022-11-24T20:54:54.077Z,84.82
2022-11-24T20:57:27.407Z,84.35
2022-11-24T20:59:58.092Z,85.37
2022-11-24T21:02:29.004Z,92.25
2022-11-24T21:04:59.705Z,90.47
2022-11-24T21:07:30.382Z,86.54
2022-11-24T21:10:01.124Z,89.39
2022-11-24T21:12:35.067Z,84.27
2022-11-24T21:15:07.863Z,82.82
2022-11-24T21:17:39.387Z,82.35
2022-11-24T21:20:11.698Z,83.53
2022-11-24T21:22:42.360Z,90.07
2022-11-24T21:25:13.185Z,87.64
2022-11-24T21:27:46.425Z,83.40
2022-11-24T21:30:17.733Z,83.52
2022-11-24T21:32:48.505Z,86.09
2022-11-24T21:35:19.709Z,89.65
2022-11-24T21:37:50.897Z,85.79
2022-11-24T21:40:21.804Z,83.20
2022-11-24T21:42:54.979Z,83.37
2022-11-24T21:45:25.655Z,85.33
2022-11-24T21:47:56.214Z,89.67
2022-11-24T21:50:26.802Z,85.85
2022-11-24T21:53:02.140Z,83.59
2022-11-24T21:55:35.341Z,89.70
2022-11-24T21:58:08.986Z,88.12
2022-11-24T22:00:39.682Z,84.44
2022-11-24T22:03:10.305Z,83.31
2022-11-24T22:05:40.806Z,83.53
2022-11-24T22:08:11.313Z,88.96
2022-11-24T22:10:41.984Z,90.45
2022-11-24T22:13:15.192Z,84.05
2022-11-24T22:15:46.030Z,82.57
2022-11-24T22:18:16.627Z,83.38
2022-11-24T22:20:47.366Z,84.98
2022-11-24T22:23:17.973Z,90.43
2022-11-24T22:25:48.611Z,88.30
2022-11-24T22:28:21.761Z,82.88
2022-11-24T22:30:52.464Z,82.50
2022-11-24T22:33:23.315Z,82.82
2022-11-24T22:35:59.993Z,83.12
2022-11-24T22:38:31.533Z,84.75
2022-11-24T22:41:06.077Z,82.91
2022-11-24T22:43:40.327Z,79.19
2022-11-24T22:46:12.396Z,78.79
2022-11-24T22:48:44.237Z,78.63
2022-11-24T22:51:16.457Z,79.31
2022-11-24T22:53:50.522Z,78.10
2022-11-24T22:56:21.757Z,74.74
2022-11-24T22:58:55.007Z,74.69
2022-11-24T23:01:27.045Z,75.04
2022-11-24T23:03:57.845Z,77.16
2022-11-24T23:06:30.060Z,74.11
2022-11-24T23:09:02.295Z,72.37
2022-11-24T23:11:37.650Z,73.61
2022-11-24T23:14:15.395Z,73.51
2022-11-24T23:16:46.559Z,75.29
2022-11-24T23:19:17.096Z,73.14
2022-11-24T23:21:47.750Z,71.47
2022-11-24T23:24:18.414Z,72.40
2022-11-24T23:26:49.087Z,72.49
2022-11-24T23:29:22.506Z,73.33
2022-11-24T23:31:53.304Z,73.23
2022-11-24T23:34:24.306Z,71.10
2022-11-24T23:36:54.898Z,71.45
2022-11-24T23:39:25.428Z,71.92
2022-11-24T23:41:55.895Z,72.68
2022-11-24T23:44:30.480Z,71.48
2022-11-24T23:47:01.039Z,72.16
2022-11-24T23:49:32.869Z,69.82
2022-11-24T23:52:03.500Z,68.68
2022-11-24T23:54:34.222Z,70.04
2022-11-24T23:57:05.021Z,70.79
2022-11-24T23:59:38.161Z,71.80
